Time;durP1;ratioP1;P1;durP2;ratioP2;P2;SDS_P1;SDS_P2;PMS_P1;PMS_P2;Temp;Humidity;BMP_temperature;BMP_pressure;BME280_temperature;BME280_humidity;BME280_pressure;Samples;Min_cycle;Max_cycle;Signal;HPM_P1;HPM_P2
2024/01/25 00:00:25;;;;;;;;;;;;;;;23.31;37.41;102832.50;4250296;27;20051;-55
2024/01/25 00:02:27;;;;;;;6.55;1.80;;;;;;;23.26;37.81;102825.56;4249997;27;19972;-55
2024/01/25 00:04:28;;;;;;;5.95;1.98;;;;;;;23.22;37.59;102815.09;4249700;27;20471;-54
2024/01/25 00:06:31;;;;;;;4.90;1.65;;;;;;;23.19;37.86;102815.28;4249978;27;20051;-54
2024/01/25 00:08:33;;;;;;;;;;;;;;;23.15;37.87;102814.53;4250444;27;20039;-53
2024/01/25 00:10:34;;;;;;;5.88;1.90;;;;;;;23.11;38.06;102815.66;4249557;27;20019;-54
2024/01/25 00:12:36;;;;;;;7.00;2.20;;;;;;;23.12;37.89;102810.22;4250214;27;20054;-53
2024/01/25 00:14:38;;;;;;;5.45;1.90;;;;;;;23.14;37.93;102808.28;4249827;27;20146;-53
2024/01/25 00:16:41;;;;;;;6.55;2.22;;;;;;;23.16;38.00;102807.34;4248550;27;20517;-55
2024/01/25 00:18:43;;;;;;;5.97;1.88;;;;;;;23.18;38.08;102803.66;4249818;27;20124;-54
2024/01/25 00:20:45;;;;;;;;;;;;;;;23.20;37.89;102800.91;4250120;27;20077;-54
2024/01/25 00:22:46;;;;;;;6.30;2.30;;;;;;;23.20;37.95;102798.22;4249699;27;20386;-55
2024/01/25 00:24:48;;;;;;;8.27;2.50;;;;;;;23.22;38.12;102790.94;4248627;27;20047;-55
2024/01/25 00:26:50;;;;;;;5.65;2.10;;;;;;;23.23;37.85;102787.28;4249816;27;20043;-54
2024/01/25 00:28:52;;;;;;;5.43;1.60;;;;;;;23.24;37.83;102783.66;4249555;27;20050;-55
2024/01/25 00:30:54;;;;;;;6.20;2.10;;;;;;;23.24;37.95;102794.41;4249445;27;20475;-55
2024/01/25 00:32:58;;;;;;;5.93;1.95;;;;;;;23.22;37.57;102793.63;4249468;27;20043;-56
2024/01/25 00:35:01;;;;;;;5.47;2.10;;;;;;;23.18;38.06;102789.38;4249519;27;20573;-55
2024/01/25 00:37:03;;;;;;;6.90;1.70;;;;;;;23.16;38.10;102789.44;4249649;27;20436;-55
2024/01/25 00:39:05;;;;;;;;;;;;;;;23.14;38.17;102789.50;4249368;27;20043;-56
2024/01/25 00:41:09;;;;;;;6.15;2.03;;;;;;;23.10;37.95;102776.38;4249610;27;19925;-55
2024/01/25 00:43:10;;;;;;;6.68;1.77;;;;;;;23.14;38.22;102772.53;4249331;27;20046;-54
2024/01/25 00:45:12;;;;;;;6.45;2.33;;;;;;;23.17;37.92;102779.59;4249156;27;20135;-55
2024/01/25 00:47:14;;;;;;;6.05;1.98;;;;;;;23.18;38.06;102771.44;4249372;27;20047;-55
2024/01/25 00:49:16;;;;;;;5.68;2.10;;;;;;;23.22;38.22;102777.50;4249405;27;20073;-55
2024/01/25 00:51:22;;;;;;;6.05;2.05;;;;;;;23.24;38.22;102770.25;4249494;27;20031;-54
2024/01/25 00:53:24;;;;;;;5.95;1.95;;;;;;;23.25;37.95;102767.47;4248983;27;20043;-54
2024/01/25 00:55:26;;;;;;;5.03;1.77;;;;;;;23.27;37.76;102767.41;4248895;27;20149;-54
2024/01/25 00:57:28;;;;;;;5.55;2.00;;;;;;;23.27;37.67;102768.25;4249047;27;20070;-54
2024/01/25 00:59:30;;;;;;;6.40;2.03;;;;;;;23.27;38.02;102778.13;4249097;27;20100;-54
2024/01/25 01:01:32;;;;;;;;;;;;;;;23.24;37.78;102776.47;4249496;27;20067;-51
2024/01/25 01:03:34;;;;;;;6.60;2.25;;;;;;;23.21;37.82;102773.09;4249102;27;20018;-53
2024/01/25 01:05:36;;;;;;;5.45;1.55;;;;;;;23.21;37.98;102773.09;4248895;27;20110;-50
2024/01/25 01:07:40;;;;;;;6.82;2.00;;;;;;;23.19;38.03;102770.50;4248508;27;20047;-53
2024/01/25 01:09:42;;;;;;;6.18;1.92;;;;;;;23.18;38.14;102768.75;4248996;27;20498;-53
2024/01/25 01:11:44;;;;;;;;;;;;;;;23.18;37.93;102763.38;4249439;27;20494;-55
2024/01/25 01:13:46;;;;;;;6.82;2.10;;;;;;;23.16;37.99;102767.97;4248810;27;19923;-54
2024/01/25 01:15:48;;;;;;;5.57;1.80;;;;;;;23.21;37.79;102765.03;4247668;27;20446;-55
2024/01/25 01:17:49;;;;;;;6.55;2.05;;;;;;;23.22;37.94;102758.72;4248913;27;20413;-55
2024/01/25 01:19:51;;;;;;;;;;;;;;;23.22;37.88;102759.59;4249572;27;20078;-55
2024/01/25 01:21:53;;;;;;;7.15;2.00;;;;;;;23.23;37.94;102761.34;4248546;27;19941;-55
2024/01/25 01:23:55;;;;;;;6.30;1.95;;;;;;;23.24;37.71;102748.75;4248710;27;20043;-56
2024/01/25 01:26:00;;;;;;;6.60;2.00;;;;;;;23.26;37.46;102750.41;4248539;27;20478;-56
2024/01/25 01:28:02;;;;;;;6.30;2.15;;;;;;;23.27;37.93;102754.81;4247444;27;20066;-56
2024/01/25 01:30:04;;;;;;;6.68;2.05;;;;;;;23.26;37.94;102746.88;4248586;27;20051;-56
2024/01/25 01:32:06;;;;;;;8.05;2.13;;;;;;;23.22;37.72;102742.59;4248564;27;20051;-56
2024/01/25 01:34:09;;;;;;;5.78;2.00;;;;;;;23.17;37.80;102740.19;4247221;27;20095;-56
2024/01/25 01:36:11;;;;;;;5.75;1.90;;;;;;;23.19;38.00;102748.16;4246109;27;20517;-54
2024/01/25 01:38:12;;;;;;;5.88;2.03;;;;;;;23.19;38.10;102750.84;4247139;27;20462;-54
2024/01/25 01:40:14;;;;;;;;;;;;;;;23.16;38.13;102749.19;4247677;27;20039;-56
2024/01/25 01:42:16;;;;;;;5.93;1.85;;;;;;;23.15;38.03;102747.44;4248266;27;20075;-56
2024/01/25 01:44:17;;;;;;;5.93;1.88;;;;;;;23.18;38.11;102758.03;4248343;27;20130;-56
2024/01/25 01:46:33;;;;;;;6.40;2.15;;;;;;;23.23;37.73;102757.75;4248309;27;20084;-56
2024/01/25 01:48:35;;;;;;;5.95;1.98;;;;;;;23.24;37.99;102759.50;4247119;27;20050;-56
2024/01/25 01:50:38;;;;;;;6.53;1.80;;;;;;;23.26;37.98;102755.78;4248026;27;20043;-55
2024/01/25 01:52:40;;;;;;;6.25;2.03;;;;;;;23.26;37.64;102753.09;4248160;27;20122;-56
2024/01/25 01:54:41;;;;;;;5.53;1.67;;;;;;;23.30;38.03;102756.47;4248184;27;20043;-56
2024/01/25 01:56:45;;;;;;;7.05;2.15;;;;;;;23.31;37.61;102749.25;4248120;27;20561;-56
2024/01/25 01:58:48;;;;;;;4.82;1.58;;;;;;;23.31;37.82;102757.31;4247851;27;20051;-53
2024/01/25 02:00:50;;;;;;;5.72;1.77;;;;;;;23.29;37.58;102746.66;4247952;27;20047;-54
2024/01/25 02:02:52;;;;;;;6.03;1.80;;;;;;;23.27;37.62;102753.97;4248054;27;20174;-56
2024/01/25 02:04:54;;;;;;;;;;;;;;;23.22;37.69;102748.84;4248472;27;20512;-54
2024/01/25 02:06:56;;;;;;;6.85;2.05;;;;;;;23.19;38.06;102748.16;4247696;27;20014;-54
2024/01/25 02:09:00;;;;;;;5.28;1.92;;;;;;;23.18;38.12;102752.66;4248058;27;20058;-55
2024/01/25 02:11:02;;;;;;;4.82;1.80;;;;;;;23.20;38.22;102749.91;4247965;27;20562;-55
2024/01/25 02:13:04;;;;;;;6.72;1.80;;;;;;;23.20;38.13;102752.59;4248001;27;20047;-54
2024/01/25 02:15:06;;;;;;;;;;;;;;;23.20;37.80;102753.44;4248302;27;20049;-55
2024/01/25 02:17:08;;;;;;;5.25;1.70;;;;;;;23.19;37.87;102742.81;4247814;27;19919;-54
2024/01/25 02:19:10;;;;;;;6.45;1.75;;;;;;;23.23;38.33;102745.22;4247713;27;20048;-54
2024/01/25 02:21:11;;;;;;;5.18;1.85;;;;;;;23.27;38.02;102751.28;4247401;27;20078;-55
2024/01/25 02:23:13;;;;;;;;;;;;;;;23.27;37.73;102746.75;4248043;27;20039;-55
2024/01/25 02:25:15;;;;;;;8.00;2.60;;;;;;;23.27;37.70;102736.03;4247752;27;19919;-54
2024/01/25 02:27:16;;;;;;;6.13;1.75;;;;;;;23.27;38.07;102738.72;4247534;27;20067;-55
2024/01/25 02:29:18;;;;;;;;;;;;;;;23.27;37.65;102746.75;4248268;27;20209;-55
2024/01/25 02:31:20;;;;;;;5.07;1.77;;;;;;;23.25;38.18;102754.03;4247675;27;19925;-54
2024/01/25 02:33:21;;;;;;;6.60;1.80;;;;;;;23.23;38.14;102747.91;4247712;27;20095;-57
2024/01/25 02:35:23;;;;;;;;;;;;;;;23.21;38.11;102751.59;4247971;27;20051;-54
2024/01/25 02:37:25;;;;;;;5.43;2.00;;;;;;;23.19;38.10;102754.38;4247514;27;19964;-54
2024/01/25 02:39:26;;;;;;;5.90;1.92;;;;;;;23.19;38.15;102759.75;4229212;28;20051;-55
2024/01/25 02:41:32;;;;;;;5.40;2.00;;;;;;;23.20;38.13;102761.50;4247694;27;20092;-55
2024/01/25 02:43:33;;;;;;;6.20;2.05;;;;;;;23.21;38.35;102755.19;4247300;27;20057;-58
2024/01/25 02:45:35;;;;;;;4.78;1.85;;;;;;;23.25;37.87;102763.91;4246405;27;20425;-54
2024/01/25 02:47:37;;;;;;;5.28;2.15;;;;;;;23.25;37.96;102758.56;4246146;27;20047;-56
2024/01/25 02:49:39;;;;;;;5.60;1.80;;;;;;;23.28;37.94;102758.34;4247239;27;20043;-55
2024/01/25 02:51:41;;;;;;;5.22;1.63;;;;;;;23.30;37.54;102748.41;4247397;27;20071;-55
2024/01/25 02:53:42;;;;;;;5.35;1.60;;;;;;;23.31;37.66;102751.94;4247457;27;20079;-55
2024/01/25 02:55:44;;;;;;;7.05;2.00;;;;;;;23.30;37.72;102745.72;4247274;28;20035;-54
2024/01/25 02:57:46;;;;;;;7.05;1.90;;;;;;;23.32;37.52;102751.88;4247375;28;20081;-54
2024/01/25 02:59:47;;;;;;;;;;;;;;;23.30;37.75;102751.09;4246492;28;20138;-55
2024/01/25 03:01:49;;;;;;;3.90;1.45;;;;;;;23.25;37.76;102743.28;4247308;27;19950;-55
2024/01/25 03:03:51;;;;;;;6.78;1.80;;;;;;;23.25;37.90;102747.81;4247163;27;20458;-55
2024/01/25 03:05:53;;;;;;;;;;;;;;;23.23;37.89;102744.34;4247992;27;20047;-55
2024/01/25 03:07:55;;;;;;;5.22;1.75;;;;;;;23.20;37.85;102733.78;4247508;28;19919;-54
2024/01/25 03:09:57;;;;;;;;;;;;;;;23.19;37.89;102735.59;4247828;27;20055;-56
2024/01/25 03:11:59;;;;;;;5.70;2.00;;;;;;;23.19;38.07;102727.53;4247563;27;19927;-55
2024/01/25 03:14:00;;;;;;;5.05;1.65;;;;;;;23.23;38.13;102741.66;4247389;28;20051;-55
2024/01/25 03:16:02;;;;;;;6.72;1.85;;;;;;;23.24;37.87;102736.19;4247363;28;20072;-54
2024/01/25 03:18:04;;;;;;;;;;;;;;;23.27;38.29;102740.53;4247407;27;20047;-54
2024/01/25 03:20:06;;;;;;;5.15;1.58;;;;;;;23.28;37.94;102740.44;4247378;27;19919;-55
2024/01/25 03:22:08;;;;;;;6.55;1.75;;;;;;;23.28;37.95;102735.09;4247358;27;20051;-54
2024/01/25 03:24:10;;;;;;;5.28;1.60;;;;;;;23.33;37.66;102739.31;4247151;28;20456;-54
2024/01/25 03:26:12;;;;;;;6.15;2.22;;;;;;;23.32;37.74;102730.41;4246101;28;20146;-55
2024/01/25 03:28:14;;;;;;;7.18;1.80;;;;;;;23.31;37.54;102733.16;4247331;27;20051;-55
2024/01/25 03:30:16;;;;;;;5.85;1.80;;;;;;;23.26;37.99;102736.97;4247283;27;20047;-54
2024/01/25 03:32:18;;;;;;;;;;;;;;;23.25;38.15;102734.38;4247368;28;20085;-55
2024/01/25 03:34:20;;;;;;;5.68;1.73;;;;;;;23.21;38.19;102732.81;4247311;28;20013;-55
2024/01/25 03:36:22;;;;;;;6.45;2.05;;;;;;;23.22;38.13;102734.56;4247504;27;20108;-57
2024/01/25 03:38:23;;;;;;;9.27;2.40;;;;;;;23.19;37.78;102730.22;4247276;28;20043;-54
2024/01/25 03:40:25;;;;;;;6.20;2.20;;;;;;;23.19;37.97;102732.91;4247183;28;20047;-53
2024/01/25 03:42:27;;;;;;;4.80;1.70;;;;;;;23.20;37.60;102725.75;4246962;28;20506;-55
2024/01/25 03:44:29;;;;;;;6.05;1.90;;;;;;;23.21;38.33;102727.44;4247037;27;20047;-55
2024/01/25 03:46:30;;;;;;;;;;;;;;;23.22;38.17;102722.00;4246209;28;20569;-53
2024/01/25 03:48:32;;;;;;;6.40;1.75;;;;;;;23.24;38.00;102724.59;4246691;27;19989;-55
2024/01/25 03:50:34;;;;;;;5.57;1.70;;;;;;;23.26;38.02;102723.56;4247211;27;20096;-54
2024/01/25 03:52:36;;;;;;;4.75;1.60;;;;;;;23.29;37.45;102734.13;4247215;27;20058;-55
2024/01/25 03:54:38;;;;;;;7.28;2.20;;;;;;;23.30;37.63;102726.94;4247124;27;20050;-53
2024/01/25 03:56:40;;;;;;;6.30;1.70;;;;;;;23.29;37.80;102726.06;4247026;28;20475;-55
2024/01/25 03:58:41;;;;;;;5.10;1.67;;;;;;;23.30;37.72;102721.56;4247027;27;20072;-58
2024/01/25 04:00:43;;;;;;;;;;;;;;;23.27;37.96;102730.66;4250433;27;20043;-54
2024/01/25 04:02:45;;;;;;;5.05;1.90;;;;;;;23.23;37.90;102729.13;4249445;27;19938;-55
2024/01/25 04:04:47;;;;;;;5.47;1.60;;;;;;;23.24;37.89;102719.22;4250098;27;20043;-57
2024/01/25 04:06:48;;;;;;;;;;;;;;;23.21;38.19;102720.28;4250366;27;20055;-56
2024/01/25 04:08:50;;;;;;;5.63;1.63;;;;;;;23.20;38.03;102723.06;4250026;27;20435;-56
2024/01/25 04:10:52;;;;;;;5.32;1.63;;;;;;;23.21;38.14;102719.41;4249786;27;20521;-55
2024/01/25 04:12:53;;;;;;;5.22;1.63;;;;;;;23.22;38.17;102715.75;4249694;27;20054;-56
2024/01/25 04:14:57;;;;;;;5.45;1.73;;;;;;;23.25;37.77;102720.97;4249753;27;20396;-56
2024/01/25 04:16:59;;;;;;;5.25;1.50;;;;;;;23.28;37.82;102712.72;4249466;27;20078;-55
2024/01/25 04:19:00;;;;;;;5.55;1.50;;;;;;;23.29;37.90;102715.34;4249926;27;20039;-56
2024/01/25 04:21:09;;;;;;;5.32;1.70;;;;;;;23.32;37.73;102716.09;4249733;27;20045;-57
2024/01/25 04:23:11;;;;;;;6.18;1.92;;;;;;;23.34;37.93;102711.50;4248471;27;20498;-56
2024/01/25 04:25:13;;;;;;;4.72;1.40;;;;;;;23.34;37.85;102724.94;4248245;27;20117;-56
2024/01/25 04:27:14;;;;;;;6.13;1.77;;;;;;;23.33;37.42;102721.41;4249524;27;20047;-56
2024/01/25 04:29:16;;;;;;;5.13;1.30;;;;;;;23.33;37.92;102733.94;4249782;27;20070;-56
2024/01/25 04:31:22;;;;;;;5.53;2.10;;;;;;;23.29;37.61;102726.06;4249269;27;20039;-55
2024/01/25 04:33:29;;;;;;;4.20;1.33;;;;;;;23.26;37.93;102723.56;4249523;27;20099;-56
2024/01/25 04:35:32;;;;;;;5.30;1.60;;;;;;;23.25;38.05;102726.34;4249642;27;20058;-55
2024/01/25 04:37:34;;;;;;;4.55;1.50;;;;;;;23.24;37.91;102721.91;4249408;27;20446;-55
2024/01/25 04:39:36;;;;;;;4.85;1.20;;;;;;;23.24;37.82;102721.91;4249500;27;20039;-54
2024/01/25 04:41:37;;;;;;;4.55;1.58;;;;;;;23.25;37.96;102734.38;4249363;27;20043;-54
2024/01/25 04:43:44;;;;;;;5.72;1.80;;;;;;;23.26;37.97;102720.03;4249200;27;20130;-56
2024/01/25 04:45:46;;;;;;;5.03;1.45;;;;;;;23.29;38.24;102717.13;4249025;27;20081;-56
2024/01/25 04:47:48;;;;;;;4.95;1.45;;;;;;;23.30;37.96;102721.56;4249428;27;20066;-56
2024/01/25 04:49:49;;;;;;;4.60;1.40;;;;;;;23.32;37.87;102713.41;4249127;27;20100;-56
2024/01/25 04:51:51;;;;;;;5.25;1.85;;;;;;;23.34;37.59;102716.88;4249278;27;20482;-56
2024/01/25 04:53:53;;;;;;;5.57;1.80;;;;;;;23.35;37.84;102708.72;4248959;27;20078;-56
2024/01/25 04:55:55;;;;;;;4.93;1.52;;;;;;;23.35;37.57;102708.72;4248959;27;20058;-56
2024/01/25 04:57:57;;;;;;;4.35;1.50;;;;;;;23.32;37.87;102703.56;4249156;27;20387;-56
2024/01/25 04:59:58;;;;;;;4.72;1.42;;;;;;;23.28;37.62;102704.66;4248541;27;20055;-57
2024/01/25 05:02:01;;;;;;;6.20;1.83;;;;;;;23.26;37.82;102706.59;4249233;27;20043;-55
2024/01/25 05:04:03;;;;;;;4.88;1.40;;;;;;;23.24;37.34;102700.44;4248899;27;20061;-56
2024/01/25 05:06:05;;;;;;;4.10;1.23;;;;;;;23.23;37.78;102696.03;4249041;27;20120;-55
2024/01/25 05:08:07;;;;;;;;;;;;;;;23.21;37.88;102698.81;4249489;27;20047;-55
2024/01/25 05:10:09;;;;;;;4.07;1.25;;;;;;;23.20;37.93;102696.22;4248729;27;19923;-55
2024/01/25 05:12:11;;;;;;;5.05;1.67;;;;;;;23.24;37.74;102687.88;4248887;27;20073;-56
2024/01/25 05:14:12;;;;;;;5.90;1.88;;;;;;;23.26;37.89;102688.66;4248411;27;20048;-54
2024/01/25 05:16:15;;;;;;;6.20;1.63;;;;;;;23.29;37.75;102688.50;4248845;27;20501;-55
2024/01/25 05:18:16;;;;;;;4.82;1.50;;;;;;;23.32;37.63;102684.75;4248810;27;20051;-56
2024/01/25 05:20:18;;;;;;;5.65;1.63;;;;;;;23.34;37.87;102673.91;4248974;27;20505;-55
2024/01/25 05:22:21;;;;;;;5.57;1.70;;;;;;;23.35;37.53;102687.25;4248678;27;20059;-56
2024/01/25 05:24:23;;;;;;;7.32;1.60;;;;;;;23.35;37.46;102681.88;4248634;27;20516;-57
2024/01/25 05:26:28;;;;;;;4.85;1.33;;;;;;;23.35;37.48;102675.66;4248319;27;20044;-55
2024/01/25 05:28:30;;;;;;;5.28;1.60;;;;;;;23.34;37.79;102679.28;4248346;27;20047;-56
2024/01/25 05:30:31;;;;;;;4.55;1.45;;;;;;;23.32;37.84;102673.13;4248592;27;20501;-56
2024/01/25 05:32:33;;;;;;;;;;;;;;;23.28;37.82;102675.13;4248879;27;20444;-56
2024/01/25 05:34:35;;;;;;;5.70;1.60;;;;;;;23.25;37.89;102675.31;4248436;27;19958;-55
2024/01/25 05:36:36;;;;;;;;;;;;;;;23.14;38.06;102660.66;4248998;27;20051;-57
2024/01/25 05:38:38;;;;;;;4.45;1.40;;;;;;;23.22;38.14;102672.81;4248554;27;20344;-57
2024/01/25 05:40:40;;;;;;;5.13;1.90;;;;;;;23.21;37.78;102665.72;4248494;27;20122;-56
2024/01/25 05:42:41;;;;;;;;;;;;;;;23.25;37.83;102661.91;4248634;27;20078;-57
2024/01/25 05:44:43;;;;;;;5.28;2.10;;;;;;;23.26;38.06;102663.66;4248230;27;19924;-56
2024/01/25 05:46:44;;;;;;;5.43;1.60;;;;;;;23.31;37.98;102660.66;4248229;27;20079;-56
2024/01/25 05:48:46;;;;;;;;;;;;;;;23.32;37.98;102663.28;4248819;27;20043;-56
2024/01/25 05:50:49;;;;;;;5.97;1.73;;;;;;;23.33;37.72;102666.81;4248272;27;19919;-56
2024/01/25 05:52:50;;;;;;;5.75;1.80;;;;;;;23.34;37.79;102664.03;4248301;27;20105;-55
2024/01/25 05:54:52;;;;;;;4.35;1.42;;;;;;;23.35;37.89;102668.44;4248377;27;20490;-53
2024/01/25 05:56:54;;;;;;;5.32;1.73;;;;;;;23.35;37.57;102668.44;4248194;27;20502;-55
2024/01/25 05:58:55;;;;;;;5.13;1.70;;;;;;;23.31;37.96;102663.34;4247615;27;20409;-56
2024/01/25 06:00:57;;;;;;;;;;;;;;;23.31;37.80;102682.13;4248580;27;20049;-56
2024/01/25 06:02:58;;;;;;;4.70;1.70;;;;;;;23.28;37.99;102681.38;4248335;27;19942;-56
2024/01/25 06:05:00;;;;;;;6.10;1.80;;;;;;;23.27;38.02;102676.13;4248022;27;20054;-56
2024/01/25 06:07:02;;;;;;;6.10;1.98;;;;;;;23.27;37.80;102673.44;4247898;27;20043;-56
2024/01/25 06:09:05;;;;;;;4.93;1.58;;;;;;;23.27;38.17;102670.75;4247860;27;20047;-55
2024/01/25 06:11:14;;;;;;;4.78;1.70;;;;;;;23.28;37.80;102672.44;4246969;27;20047;-56
2024/01/25 06:13:16;;;;;;;4.40;1.58;;;;;;;23.30;37.82;102675.91;4247726;27;20043;-56
2024/01/25 06:15:17;;;;;;;;;;;;;;;23.31;37.84;102679.44;4248324;27;20043;-54
2024/01/25 06:17:19;;;;;;;4.43;1.52;;;;;;;23.28;37.75;102678.69;4248143;27;19947;-56
2024/01/25 06:19:21;;;;;;;6.00;1.95;;;;;;;23.32;37.87;102678.50;4247862;27;20081;-55
2024/01/25 06:21:22;;;;;;;;;;;;;;;23.31;37.78;102677.66;4248086;27;20070;-56
2024/01/25 06:23:24;;;;;;;6.00;1.80;;;;;;;23.27;37.91;102685.03;4247930;27;19919;-56
2024/01/25 06:25:30;;;;;;;;;;;;;;;23.25;37.79;102686.06;4247205;27;20043;-56
2024/01/25 06:27:32;;;;;;;4.55;1.45;;;;;;;23.22;38.19;102686.22;4247335;27;19919;-56
2024/01/25 06:29:34;;;;;;;5.78;2.03;;;;;;;23.19;38.17;102687.28;4247904;27;20050;-55
2024/01/25 06:31:45;;;;;;;5.10;2.03;;;;;;;23.19;37.97;102681.06;4247849;27;20054;-56
2024/01/25 06:33:50;;;;;;;4.28;1.67;;;;;;;23.13;38.05;102669.66;4247808;27;20043;-53
2024/01/25 06:35:54;;;;;;;5.07;1.70;;;;;;;23.12;38.29;102667.97;4247801;27;20080;-55
2024/01/25 06:37:56;;;;;;;5.13;1.75;;;;;;;23.10;38.49;102661.81;4247787;27;20490;-55
2024/01/25 06:39:58;;;;;;;4.25;1.60;;;;;;;23.16;37.96;102673.13;4247766;27;20039;-55
2024/01/25 06:42:00;;;;;;;4.57;1.60;;;;;;;23.17;38.00;102680.28;4247235;27;20581;-55
2024/01/25 06:44:02;;;;;;;4.47;1.48;;;;;;;23.19;38.15;102671.16;4247816;27;20134;-55
2024/01/25 06:46:05;;;;;;;5.10;1.65;;;;;;;23.20;38.39;102675.59;4247538;27;20095;-55
2024/01/25 06:48:10;;;;;;;5.10;1.65;;;;;;;23.18;38.10;102677.50;4247548;27;20051;-56
2024/01/25 06:50:13;;;;;;;4.43;1.58;;;;;;;23.19;38.45;102675.69;4247670;27;20593;-56
2024/01/25 06:52:14;;;;;;;5.10;1.45;;;;;;;23.17;38.23;102673.06;4247604;27;20054;-55
2024/01/25 06:54:16;;;;;;;4.75;1.50;;;;;;;23.13;37.86;102669.66;4247258;28;20070;-56
2024/01/25 06:56:18;;;;;;;3.05;1.17;;;;;;;23.12;38.51;102659.03;4247089;28;20051;-55
2024/01/25 06:58:19;;;;;;;5.15;1.70;;;;;;;23.09;38.22;102654.72;4247583;28;20559;-56
2024/01/25 07:00:22;;;;;;;5.40;1.60;;;;;;;23.09;38.13;102649.34;4246988;28;20498;-55
2024/01/25 07:02:24;;;;;;;3.92;1.40;;;;;;;23.11;38.29;102655.50;4247492;27;20043;-56
2024/01/25 07:04:26;;;;;;;4.20;1.45;;;;;;;23.13;38.08;102648.19;4247418;28;20050;-56
2024/01/25 07:06:29;;;;;;;4.35;1.52;;;;;;;23.18;37.91;102647.13;4247499;28;20062;-56
2024/01/25 07:08:31;;;;;;;4.28;1.63;;;;;;;23.20;38.08;102654.13;4247758;27;20116;-56
2024/01/25 07:10:32;;;;;;;3.13;1.38;;;;;;;23.21;38.02;102646.91;4246918;28;20059;-57
2024/01/25 07:12:34;;;;;;;;;;;;;;;23.21;38.26;102661.22;4247877;27;20466;-55
2024/01/25 07:14:36;;;;;;;3.95;1.60;;;;;;;23.19;38.02;102649.69;4247461;27;19971;-56
2024/01/25 07:16:38;;;;;;;4.20;1.40;;;;;;;23.19;38.33;102651.53;4247403;27;20046;-55
2024/01/25 07:18:39;;;;;;;4.05;1.60;;;;;;;23.15;38.32;102650.81;4247366;27;20080;-55
2024/01/25 07:20:41;;;;;;;;;;;;;;;23.14;38.42;102649.94;4247594;27;20050;-56
2024/01/25 07:22:43;;;;;;;4.32;1.60;;;;;;;23.13;38.47;102658.09;4246005;28;19983;-56
2024/01/25 07:24:45;;;;;;;4.32;1.50;;;;;;;23.13;38.23;102655.41;4246951;27;20050;-56
2024/01/25 07:26:46;;;;;;;;;;;;;;;23.13;38.25;102658.09;4247641;27;20054;-56
2024/01/25 07:28:48;;;;;;;3.07;1.30;;;;;;;23.16;38.43;102663.28;4247258;28;19919;-56
2024/01/25 07:30:51;;;;;;;3.75;1.50;;;;;;;23.21;38.09;102663.03;4247108;27;20348;-56
2024/01/25 07:32:53;;;;;;;3.85;1.50;;;;;;;23.23;38.33;102655.75;4247268;27;20532;-55
2024/01/25 07:34:54;;;;;;;4.55;1.80;;;;;;;23.26;38.33;102669.00;4249453;27;20066;-56
2024/01/25 07:36:56;;;;;;;4.78;1.70;;;;;;;23.27;37.96;102671.59;4250226;27;20127;-56
2024/01/25 07:38:58;;;;;;;5.05;1.83;;;;;;;23.29;37.92;102666.13;4250243;27;20091;-57
2024/01/25 07:41:00;;;;;;;4.53;1.73;;;;;;;23.28;38.45;102664.41;4250548;27;20509;-56
2024/01/25 07:43:01;;;;;;;;;;;;;;;23.25;38.19;102659.22;4249464;27;20058;-55
2024/01/25 07:45:03;;;;;;;4.63;1.90;;;;;;;23.19;38.27;102651.53;4250485;27;19927;-55
2024/01/25 07:47:05;;;;;;;3.85;1.67;;;;;;;23.20;38.61;102655.94;4250162;27;20043;-55
2024/01/25 07:49:07;;;;;;;3.38;1.60;;;;;;;23.19;38.14;102647.00;4249001;27;20047;-56
2024/01/25 07:51:15;;;;;;;3.53;1.70;;;;;;;23.17;38.18;102642.69;4250196;27;20472;-55
2024/01/25 07:53:17;;;;;;;4.70;1.90;;;;;;;23.20;38.25;102651.44;4249715;27;20047;-55
2024/01/25 07:55:19;;;;;;;3.88;1.50;;;;;;;23.23;38.14;102650.38;4250167;27;20039;-56
2024/01/25 07:57:21;;;;;;;4.75;2.05;;;;;;;23.27;38.04;102654.63;4250160;27;20058;-56
2024/01/25 07:59:23;;;;;;;3.05;1.45;;;;;;;23.29;38.07;102647.34;4249857;27;20062;-54
2024/01/25 08:01:24;;;;;;;4.18;1.60;;;;;;;23.32;38.05;102654.34;4250079;27;20163;-55
2024/01/25 08:03:26;;;;;;;4.97;1.60;;;;;;;23.32;38.16;102652.53;4249964;27;20118;-55
2024/01/25 08:05:28;;;;;;;4.20;1.55;;;;;;;23.32;38.21;102641.81;4249985;27;20044;-54
2024/01/25 08:07:46;;;;;;;4.90;1.88;;;;;;;23.34;38.01;102649.75;4249412;27;20463;-55
2024/01/25 08:09:51;;;;;;;3.75;1.75;;;;;;;23.31;38.46;102649.91;4249857;27;20047;-56
2024/01/25 08:11:53;;;;;;;4.55;1.77;;;;;;;23.28;37.64;102657.22;4250007;27;20050;-55
2024/01/25 08:13:55;;;;;;;3.80;1.80;;;;;;;23.26;38.52;102655.59;4249967;27;20046;-54
2024/01/25 08:15:57;;;;;;;4.72;2.20;;;;;;;23.25;38.46;102657.38;4250052;27;20187;-54
2024/01/25 08:17:59;;;;;;;4.80;1.98;;;;;;;23.23;38.41;102658.44;4250127;27;20059;-53
2024/01/25 08:20:01;;;;;;;4.28;1.77;;;;;;;23.26;38.33;102663.66;4249894;27;20130;-55
2024/01/25 08:22:03;;;;;;;4.00;1.90;;;;;;;23.27;38.64;102657.31;4249674;27;20104;-56
2024/01/25 08:24:05;;;;;;;4.43;1.70;;;;;;;23.28;38.45;102646.47;4249717;27;20063;-55
2024/01/25 08:26:09;;;;;;;3.65;1.83;;;;;;;23.33;38.29;102650.72;4249655;27;20047;-54
2024/01/25 08:28:10;;;;;;;6.22;2.00;;;;;;;23.35;38.17;102646.97;4249570;27;20109;-57
2024/01/25 08:30:12;;;;;;;4.75;1.77;;;;;;;23.38;38.10;102645.91;4238844;27;20070;-57
2024/01/25 08:32:14;;;;;;;5.55;1.95;;;;;;;23.38;38.18;102645.91;4215583;28;20055;-55
2024/01/25 08:34:16;;;;;;;4.30;1.85;;;;;;;23.34;38.30;102644.38;4215409;28;20083;-54
2024/01/25 08:36:18;;;;;;;4.32;1.80;;;;;;;23.28;38.13;102641.13;4215743;28;20044;-53
2024/01/25 08:38:20;;;;;;;5.07;1.90;;;;;;;23.28;38.49;102651.84;4215117;28;20067;-52
2024/01/25 08:40:22;;;;;;;5.80;2.22;;;;;;;23.27;38.32;102655.50;4214096;28;20163;-55
2024/01/25 08:42:25;;;;;;;5.47;2.20;;;;;;;23.24;38.38;102655.66;4215685;28;20122;-56
2024/01/25 08:44:27;;;;;;;5.43;2.30;;;;;;;23.25;38.45;102657.38;4215223;28;20056;-52
2024/01/25 08:46:28;;;;;;;;;;;;;;;23.26;38.64;102658.28;4224702;28;20399;-51
2024/01/25 08:48:30;;;;;;;6.22;2.38;;;;;;;23.27;38.60;102660.00;4230871;28;19920;-53
2024/01/25 08:50:33;;;;;;;6.75;2.03;;;;;;;23.29;38.69;102667.00;4232155;28;20135;-53
2024/01/25 08:52:35;;;;;;;5.72;2.20;;;;;;;23.32;38.71;102657.03;4232020;28;20444;-52
2024/01/25 08:54:37;;;;;;;5.72;2.22;;;;;;;23.33;38.48;102665.00;4232040;28;20097;-57
2024/01/25 08:56:39;;;;;;;6.18;2.33;;;;;;;23.33;38.53;102658.75;4232233;27;20113;-52
2024/01/25 08:58:41;;;;;;;6.55;2.22;;;;;;;23.34;38.48;102666.72;4232335;28;20039;-53
2024/01/25 09:00:42;;;;;;;5.75;2.15;;;;;;;23.34;38.53;102657.81;4232197;28;20043;-53
2024/01/25 09:02:44;;;;;;;4.97;2.13;;;;;;;23.32;38.49;102668.66;4230300;28;20059;-52
2024/01/25 09:04:46;;;;;;;5.10;2.08;;;;;;;23.31;38.40;102657.97;4231623;28;20044;-53
2024/01/25 09:06:48;;;;;;;5.35;2.22;;;;;;;23.28;38.44;102673.34;4231704;28;20066;-54
2024/01/25 09:08:50;;;;;;;4.95;1.90;;;;;;;23.27;38.39;102670.75;4231913;28;20065;-52
2024/01/25 09:10:51;;;;;;;6.05;1.90;;;;;;;23.26;38.56;102666.31;4231832;28;20043;-53
2024/01/25 09:12:53;;;;;;;;;;;;;;;23.25;38.61;102669.97;4232312;28;20097;-53
2024/01/25 09:14:55;;;;;;;5.35;1.88;;;;;;;23.26;38.56;102679.75;4231805;28;20002;-52
2024/01/25 09:16:56;;;;;;;4.75;1.80;;;;;;;23.28;38.48;102672.44;4232014;28;20051;-54
2024/01/25 09:18:58;;;;;;;4.95;2.00;;;;;;;23.33;38.51;102672.19;4231917;28;20138;-52
2024/01/25 09:20:59;;;;;;;;;;;;;;;23.34;38.76;102665.88;4230310;28;20054;-52
2024/01/25 09:23:01;;;;;;;5.43;1.90;;;;;;;23.34;38.44;102668.56;4231643;28;19967;-52
2024/01/25 09:25:04;;;;;;;5.15;1.95;;;;;;;23.38;38.19;102668.28;4231303;28;20044;-53
2024/01/25 09:27:09;;;;;;;4.90;1.80;;;;;;;23.38;38.36;102664.72;4231913;28;20048;-50
2024/01/25 09:29:11;;;;;;;3.95;1.80;;;;;;;23.37;38.44;102669.22;4231665;28;20059;-54
2024/01/25 09:31:13;;;;;;;4.05;1.63;;;;;;;23.36;38.65;102664.81;4231617;28;20120;-52
2024/01/25 09:33:15;;;;;;;;;;;;;;;23.33;38.53;102659.66;4232030;28;20043;-52
2024/01/25 09:35:17;;;;;;;5.65;1.92;;;;;;;23.29;38.84;102664.31;4231430;28;20409;-53